Sagehen Creek Weather observations

Data are for observation ending at time listed.
 Day   Time    Ave.   Ave.  Ave.  Vector   Max.   Stn.    Total    Solar   Ave.  
  of    of     Air    Rel.  Wind   Wind    Wind   Baro.  Precip.   Rad.    Soil  
Year   Day     Temp.  Hum.  Speed  Dir.    Gust   Pres.                    Temp. 
2014   (PST)    F      %     mph   deg.    mph     mb.     in.     W/m2     F   
------------------------------------------------------------------------------
 295    7:40   29.7    85    0.0   262      0.4   837.2   13.71      81    999.0
 295    7:50   30.6    84    0.4   163      1.3   837.2   13.71     240    999.0
 295    8:00   32.3    80    0.4   141      1.6   837.2   13.71     202    999.0
 295    8:10   33.6    78    0.3   161      1.5   837.3   13.71     176    999.0
 295    8:20   34.9    80    0.2   162      1.0   837.3   13.71     146    999.0
 295    8:30   36.4    77    0.2   170      0.6   837.3   13.71     257    999.0
 295    8:40   40.1    65    0.3   128      1.1   837.3   13.71     403    999.0
 295    8:50   44.0    55    0.3   105      1.6   837.0   13.71     361    999.0
 295    9:00   45.4    51    1.1    98      2.6   836.8   13.71     330    999.0
 295    9:10   46.7    53    0.1   191      1.0   837.2   13.71     250    999.0
 295    9:20   48.7    54    0.7   106      2.6   837.1   13.71     510    999.0
 295    9:30   51.2    46    3.1   101      5.1   837.1   13.70     484    999.0
 295    9:40   52.3    46    2.8   102      5.1   837.0   13.70     569    999.0
 295    9:50   54.8    42    1.7    37      6.1   836.9   13.71     319    999.0
 295   10:00   55.6    40    1.1   263      5.3   836.8   13.71     208    999.0
 295   10:10   55.9    42    1.2    99      3.4   836.8   13.70     280    999.0
 295   10:20   56.0    40    1.5    86      2.9   837.0   13.70     239    999.0
 295   10:30   55.7    41    1.4    92      3.3   837.2   13.70     256    999.0
 295   10:40   56.0    41    1.6    91      2.9   837.1   13.70     218    999.0
 295   10:50   56.2    43    0.5    76      2.2   836.9   13.70     227    999.0
 295   11:00   57.2    37    0.9   356      2.2   836.8   13.70     306    999.0
 295   11:10   57.9    36    1.7   267      3.7   837.0   13.70     288    999.0
 295   11:20   58.6    35    1.3   229      4.3   837.0   13.70     282    999.0
 295   11:30   59.2    34    1.8   229      6.0   837.1   13.70     334    999.0
 295   11:40   60.0    33    1.6   198      5.1   837.1   13.70     386    999.0
 295   11:50   60.7    32    1.7   179      5.7   837.1   13.70     458    999.0
 295   12:00   61.0    30    2.4   235      7.0   837.1   13.70     497    999.0
 295   12:10   61.4    30    2.0   227      5.8   837.0   13.70     510    999.0
 295   12:20   60.8    30    2.1   227      5.2   837.0   13.70     438    999.0
 295   12:30   61.0    28    3.0   204      9.1   837.0   13.70     607    999.0
 295   12:40   60.9    28    3.1   271      9.4   837.1   13.69     527    999.0
 295   12:50   60.6    29    3.3   286      9.7   836.9   13.70     568    999.0
 295   13:00   61.0    29    3.1   258      7.0   836.8   13.69     635    999.0
 295   13:10   61.2    28    3.4   265     11.2   836.8   13.70     636    999.0
 295   13:20   60.9    28    3.0   273      5.9   836.8   13.70     568    999.0
 295   13:30   60.6    29    2.8   252      6.0   836.8   13.70     404    999.0
 295   13:40   60.7    29    3.3   261     11.0   836.7   13.70     541    999.0
 295   13:50   60.9    28    3.3   283     10.0   836.6   13.70     508    999.0
 295   14:00   60.5    29    2.9   244      7.6   836.5   13.70     485    999.0
 295   14:10   60.4    28    2.6   236      7.8   836.4   13.70     449    999.0
 295   14:20   60.2    29    3.7   269      7.6   836.6   13.69     467    999.0
 295   14:30   60.2    29    3.3   266     10.2   836.8   13.69     440    999.0
 295   14:40   59.4    29    2.1   209      7.4   836.5   13.70     279    999.0
 295   14:50   58.6    29    2.3   235      5.8   836.7   13.70     325    999.0
 295   15:00   58.3    30    2.3   179      7.2   837.0   13.70     298    999.0
 295   15:10   58.0    31    2.0   192      6.7   836.5   13.70     314    999.0
 295   15:20   57.7    32    1.6   258      4.4   836.7   13.70     123    999.0
 295   15:30   57.2    33    2.9   215      7.2   836.9   13.70      51    999.0
 295   15:40   56.7    32    1.7   230      5.9   836.9   13.70      46    999.0
 295   15:50   56.3    33    2.0   220      6.1   836.6   13.70      42    999.0
 295   16:00   55.8    35    1.5   262      3.0   836.4   13.70      44    999.0
 295   16:10   55.1    38    1.2   258      5.2   836.8   13.70      37    999.0
 295   16:20   54.4    38    1.6   236      4.2   836.7   13.70      26    999.0
 295   16:30   54.2    37    2.3   280      4.6   836.6   13.70      27    999.0
 295   16:40   53.9    38    2.2   264      7.4   836.6   13.70      20    999.0
 295   16:50   53.7    38    2.5   282      5.0   836.6   13.70      12    999.0
 295   17:00   53.1    40    1.4   276      4.1   836.6   13.70       9    999.0
 295   17:10   52.2    42    1.6   294      3.9   836.6   13.71       3    999.0
 295   17:20   51.6    43    1.6   280      3.7   836.6   13.70       1    999.0
 295   17:30   51.0    44    2.2   275      5.4   836.7   13.70       0    999.0
 295   17:40   50.9    42    2.5   258      6.3   836.8   13.71       0    999.0
 295   17:50   51.2    41    2.1   294      6.5   836.8   13.71       0    999.0
 295   18:00   50.9    41    1.5   294      5.3   836.9   13.71       0    999.0
 295   18:10   50.3    43    0.6   252      2.7   836.5   13.71       0    999.0
 295   18:20   49.0    45    1.3   283      3.3   836.6   13.71       0    999.0
 295   18:30   48.2    47    1.6   290      3.4   836.7   13.71       0    999.0
 295   18:40   46.2    54    1.1   239      2.2   836.7   13.71       0    999.0
 295   18:50   43.3    61    0.8   187      2.5   836.9   13.71       0    999.0
 295   19:00   41.7    65    0.9   251      2.7   837.1   13.70       0    999.0
 295   19:10   42.1    61    0.7   295      3.8   837.0   13.71       0    999.0
 295   19:20   44.3    54    0.9   251      2.8   837.0   13.70       0    999.0
 295   19:30   44.3    56    0.9   288      2.4   837.1   13.70       0    999.0
 295   19:40   44.6    55    1.0   291      3.1   837.1   13.71       0    999.0
 295   19:50   45.3    53    0.5   175      2.3   837.1   13.70       0    999.0
 295   20:00   44.9    54    0.7   276      2.2   837.1   13.70       0    999.0
 295   20:10   45.0    54    1.3   275      3.1   837.2   13.70       0    999.0
 295   20:20   44.3    56    1.0   281      2.2   837.4   13.70       0    999.0
 295   20:30   43.6    57    1.2   288      3.3   837.5   13.70       0    999.0
 295   20:40   44.2    55    0.7   274      2.6   837.5   13.70       0    999.0
 295   20:50   44.6    55    0.8   270      2.5   837.4   13.70       0    999.0
 295   21:00   44.3    56    0.6   301      2.0   837.3   13.70       0    999.0
 295   21:10   43.8    57    0.8   284      2.5   837.6   13.70       0    999.0
 295   21:20   43.2    57    1.2   157      4.8   837.4   13.70       0    999.0
 295   21:30   44.0    56    0.9   285      3.0   837.2   13.70       0    999.0
 295   21:40   43.0    58    0.9   277      2.4   837.6   13.70       0    999.0
 295   21:50   42.5    60    0.3   216      1.4   837.3   13.70       0    999.0
 295   22:00   41.5    61    1.0   115      3.4   837.1   13.70       0    999.0
 295   22:10   42.0    59    1.1   114      2.6   837.6   13.70       0    999.0
 295   22:20   42.9    56    1.0    99      3.9   837.4   13.70       0    999.0
 295   22:30   43.5    55    1.2   131      4.5   837.3   13.70       0    999.0
 295   22:40   43.5    55    0.6   131      1.9   837.2   13.70       0    999.0
 295   22:50   41.2    60    0.5   160      1.9   837.2   13.70       0    999.0
 295   23:00   38.5    66    0.3   101      1.5   837.3   13.70       0    999.0
 295   23:10   37.8    68    0.8    94      2.5   837.5   13.70       0    999.0
 295   23:20   39.5    64    1.2    98      3.6   837.4   13.70       0    999.0
 295   23:30   40.0    62    1.7   108      4.3   837.4   13.70       0    999.0
 295   23:40   41.2    59    1.5   119      3.1   837.2   13.70       0    999.0
 295   23:50   41.5    58    1.7   110      5.0   837.1   13.70       0    999.0
 296    0:00   43.0    54    2.4   125      4.5   837.0   13.70       0    999.0
 296    0:10   43.2    55    1.6   126      4.2   837.3   13.70       0    999.0
 296    0:20   40.0    62    1.7   267      3.4   837.2   13.70       0    999.0
 296    0:30   36.8    68    2.1   270      4.0   837.2   13.70       0    999.0
 296    0:40   35.5    72    2.0   275      4.3   837.1   13.70       0    999.0
 296    0:50   34.7    74    1.4   269      2.7   837.1   13.70       0    999.0
 296    1:00   34.3    75    1.7   285      3.7   837.1   13.70       0    999.0
 296    1:10   34.8    74    1.2   346      3.7   837.0   13.70       0    999.0
 296    1:20   39.6    63    2.6   114      7.3   837.0   13.70       0    999.0
 296    1:30   43.3    54    2.5   127      6.3   837.0   13.70       0    999.0
 296    1:40   44.2    52    2.5   112      5.0   836.9   13.70       0    999.0
 296    1:50   44.4    51    2.7   119      7.5   836.9   13.70       0    999.0
 296    2:00   45.0    50    2.8   127      4.6   836.8   13.70       0    999.0
 296    2:10   45.6    48    2.6   105      5.2   836.9   13.70       0    999.0
 296    2:20   44.8    50    1.6   103      3.2   836.6   13.70       0    999.0
 296    2:30   41.4    58    1.0   256      2.7   836.4   13.70       0    999.0
 296    2:40   37.5    67    1.1   290      2.7   836.2   13.70       0    999.0
 296    2:50   36.7    69    1.3   325      3.5   836.3   13.70       0    999.0
 296    3:00   35.7    71    1.8   276      3.5   836.5   13.70       0    999.0
 296    3:10   34.8    74    1.8   285      4.1   836.4   13.70       0    999.0
 296    3:20   34.2    76    1.5   267      2.8   836.5   13.70       0    999.0
 296    3:30   33.5    78    1.7   280      3.2   836.6   13.70       0    999.0
 296    3:40   33.4    78    1.6   286      3.1   836.1   13.70       0    999.0
 296    3:50   33.4    79    1.6   279      3.6   836.3   13.70       0    999.0
 296    4:00   33.3    79    1.5   287      3.3   836.4   13.70       0    999.0
 296    4:10   33.5    79    1.9   275      3.3   836.6   13.70       0    999.0
 296    4:20   33.2    80    1.7   276      3.1   836.4   13.70       0    999.0
 296    4:30   32.9    81    1.6   281      3.0   836.3   13.70       0    999.0
 296    4:40   32.7    81    1.3   274      3.1   836.7   13.71       0    999.0
 296    4:50   32.5    82    1.8   282      4.4   836.7   13.71       0    999.0
 296    5:00   32.3    82    1.2   278      2.3   836.7   13.70       0    999.0
 296    5:10   32.0    83    1.3   285      2.9   836.8   13.70       0    999.0
 296    5:20   32.1    82    1.4   282      2.4   836.8   13.71       0    999.0
 296    5:30   32.4    82    1.0   280      2.5   836.7   13.71       0    999.0
 296    5:40   32.3    82    1.0   281      3.6   836.9   13.70       0    999.0
 296    5:50   33.7    82    1.1    50      3.4   836.8   13.70       0    999.0
 296    6:00   37.3    74    1.0    69      3.1   836.6   13.70       0    999.0
 296    6:10   39.4    70    0.9    48      3.7   836.8   13.71       1    999.0
 296    6:20   40.8    67    1.2    44      3.8   837.0   13.70       1    999.0
 296    6:30   44.1    60    1.8   132      5.1   837.2   13.70       3    999.0
 296    6:40   45.3    58    1.3    92      6.6   836.9   13.70      10    999.0
 296    6:50   45.6    57    1.4   118      4.3   837.0   13.70      19    999.0
 296    7:00   45.6    57    2.1   108      5.3   837.1   13.70      25    999.0
 296    7:10   46.0    55    2.0   114      4.1   837.3   13.70      32    999.0
 296    7:20   42.3    62    1.3   263      2.8   837.1   13.70      45    999.0
 296    7:30   41.7    65    1.9    93      7.1   837.0   13.70      58    999.0

Return to Sagehen Creek graphs page.


Western Regional Climate Center,wrcc@dri.edu